Time;durP1;ratioP1;P1;durP2;ratioP2;P2;SDS_P1;SDS_P2;PMS_P1;PMS_P2;Temp;Humidity;BMP_temperature;BMP_pressure;BME280_temperature;BME280_humidity;BME280_pressure;Samples;Min_cycle;Max_cycle;Signal;HPM_P1;HPM_P2
2023/04/30 00:00:25;;;;;;;4.13;3.67;;;;;;;5.27;100.00;102243.09;1038947;28;20399;-81
2023/04/30 00:00:56;;;;;;;4.20;3.90;;;;;;;5.23;100.00;102244.38;1044016;28;20310;-81
2023/04/30 00:01:28;;;;;;;5.28;3.55;;;;;;;5.17;100.00;102242.28;1039725;28;20308;-81
2023/04/30 00:02:00;;;;;;;3.42;3.13;;;;;;;5.15;100.00;102244.25;1039840;28;20876;-81
2023/04/30 00:02:32;;;;;;;5.40;3.97;;;;;;;5.06;100.00;102247.78;1042602;28;20304;-80
2023/04/30 00:03:04;;;;;;;4.38;3.78;;;;;;;5.06;100.00;102247.78;1043742;28;20661;-81
2023/04/30 00:03:36;;;;;;;3.90;3.47;;;;;;;4.99;100.00;102236.13;1038999;28;20303;-81
2023/04/30 00:04:08;;;;;;;3.67;3.38;;;;;;;5.07;100.00;102238.03;1039821;28;21067;-81
2023/04/30 00:04:39;;;;;;;6.65;5.10;;;;;;;5.08;100.00;102240.53;1039641;28;20311;-80
2023/04/30 00:05:11;;;;;;;6.38;4.82;;;;;;;5.05;100.00;102246.09;1040705;28;20315;-81
2023/04/30 00:05:42;;;;;;;6.15;5.13;;;;;;;4.95;100.00;102242.69;1043406;28;20296;-81
2023/04/30 00:06:14;;;;;;;5.45;4.95;;;;;;;4.89;100.00;102246.72;1042261;28;20298;-81
2023/04/30 00:06:46;;;;;;;6.55;5.28;;;;;;;4.94;100.00;102244.50;1043450;28;20805;-80
2023/04/30 00:07:18;;;;;;;5.63;5.03;;;;;;;4.94;100.00;102243.66;1043326;28;20377;-81
2023/04/30 00:07:49;;;;;;;7.28;5.38;;;;;;;4.84;100.00;102240.19;1047806;28;20335;-81
2023/04/30 00:08:21;;;;;;;6.72;5.57;;;;;;;5.02;100.00;102238.47;1037288;28;20303;-81
2023/04/30 00:08:52;;;;;;;7.45;4.70;;;;;;;5.07;100.00;102238.88;1040093;28;20794;-80
2023/04/30 00:09:24;;;;;;;5.78;5.20;;;;;;;4.99;100.00;102246.69;1043537;28;20303;-81
2023/04/30 00:09:55;;;;;;;6.82;5.65;;;;;;;5.04;100.00;102241.81;1043996;28;20303;-81
2023/04/30 00:10:27;;;;;;;7.80;5.20;;;;;;;5.22;100.00;102245.34;1044092;28;20430;-81
2023/04/30 00:10:59;;;;;;;10.00;7.07;;;;;;;5.19;100.00;102250.06;1043990;28;20303;-81
2023/04/30 00:11:30;;;;;;;6.35;5.75;;;;;;;5.22;100.00;102247.16;1043634;28;20291;-81
2023/04/30 00:12:02;;;;;;;6.07;5.47;;;;;;;5.09;100.00;102247.47;1043975;28;20394;-81
2023/04/30 00:12:34;;;;;;;6.00;5.25;;;;;;;4.97;100.00;102248.66;1042342;28;20311;-81
2023/04/30 00:13:05;;;;;;;5.68;4.80;;;;;;;4.83;100.00;102246.47;1042616;28;20310;-81
2023/04/30 00:13:37;;;;;;;6.43;5.63;;;;;;;4.83;100.00;102252.56;1040566;28;20300;-81
2023/04/30 00:14:09;;;;;;;7.30;6.00;;;;;;;4.82;100.00;102245.63;1047831;28;20290;-81
2023/04/30 00:14:40;;;;;;;9.43;6.43;;;;;;;4.77;100.00;102247.88;1046846;28;20291;-81
2023/04/30 00:15:12;;;;;;;6.57;5.93;;;;;;;4.67;100.00;102246.25;1042761;28;20300;-81
2023/04/30 00:15:43;;;;;;;8.07;7.05;;;;;;;4.68;100.00;102247.91;1048009;28;20858;-81
2023/04/30 00:16:15;;;;;;;8.48;7.07;;;;;;;4.70;100.00;102248.59;1044109;28;20295;-81
2023/04/30 00:16:47;;;;;;;7.15;6.47;;;;;;;4.60;100.00;102252.06;1039811;28;20357;-81
2023/04/30 00:17:18;;;;;;;6.18;5.57;;;;;;;4.58;100.00;102243.47;1043961;28;20321;-81
2023/04/30 00:17:50;;;;;;;5.57;5.07;;;;;;;4.62;100.00;102249.28;1041214;28;20311;-81
2023/04/30 00:18:22;;;;;;;6.32;5.63;;;;;;;4.61;100.00;102248.47;1040731;28;20304;-81
2023/04/30 00:18:53;;;;;;;6.80;5.70;;;;;;;4.51;100.00;102252.09;1043591;28;20315;-81
2023/04/30 00:19:25;;;;;;;7.78;5.35;;;;;;;4.61;100.00;102251.09;1045936;28;20857;-81
2023/04/30 00:19:56;;;;;;;8.15;6.20;;;;;;;4.56;100.00;102255.13;1043908;28;20726;-81
2023/04/30 00:20:28;;;;;;;9.70;7.15;;;;;;;4.50;100.00;102251.28;1043734;28;20302;-81
2023/04/30 00:20:59;;;;;;;6.75;6.15;;;;;;;4.41;100.00;102252.13;1043958;28;20306;-81
2023/04/30 00:21:32;;;;;;;7.25;6.00;;;;;;;4.41;100.00;102252.13;1043723;28;20295;-81
2023/04/30 00:22:05;;;;;;;7.07;6.13;;;;;;;4.49;100.00;102252.25;1043623;28;20382;-81
2023/04/30 00:22:36;;;;;;;6.70;6.03;;;;;;;4.43;100.00;102250.19;1043997;28;20812;-81
2023/04/30 00:23:08;;;;;;;6.88;5.70;;;;;;;4.35;100.00;102247.41;1048048;28;20291;-81
2023/04/30 00:23:39;;;;;;;8.00;6.80;;;;;;;4.35;100.00;102247.41;1047634;28;20368;-81
2023/04/30 00:24:11;;;;;;;9.27;5.47;;;;;;;4.23;100.00;102248.53;1046603;28;20345;-81
2023/04/30 00:24:43;;;;;;;8.57;6.50;;;;;;;4.18;100.00;102246.31;1044097;28;20394;-81
2023/04/30 00:25:15;;;;;;;6.85;5.30;;;;;;;4.20;100.00;102249.66;1042929;28;20370;-80
2023/04/30 00:25:47;;;;;;;6.30;5.43;;;;;;;4.12;100.00;102249.50;1047796;28;20310;-81
2023/04/30 00:26:18;;;;;;;6.22;5.63;;;;;;;4.16;100.00;102244.78;1045436;28;20287;-81
2023/04/30 00:26:52;;;;;;;6.40;5.28;;;;;;;4.20;100.00;102244.38;1043402;28;20393;-80
2023/04/30 00:27:24;;;;;;;6.85;5.43;;;;;;;4.22;100.00;102249.50;1043656;28;20310;-80
2023/04/30 00:27:56;;;;;;;5.65;5.15;;;;;;;4.21;100.00;102251.31;1036265;28;20309;-81
2023/04/30 00:28:27;;;;;;;6.30;5.70;;;;;;;4.20;100.00;102254.09;1042358;28;20292;-81
2023/04/30 00:28:59;;;;;;;6.53;5.18;;;;;;;4.22;100.00;102254.78;1043643;28;20728;-80
2023/04/30 00:29:30;;;;;;;7.25;5.15;;;;;;;4.17;100.00;102249.94;1039736;28;20300;-81
2023/04/30 00:30:02;;;;;;;5.85;4.97;;;;;;;4.18;100.00;102250.75;1039427;28;20295;-81
2023/04/30 00:30:34;;;;;;;5.82;5.22;;;;;;;4.15;100.00;102251.03;1040172;28;20292;-81
2023/04/30 00:31:08;;;;;;;6.25;5.65;;;;;;;4.08;100.00;102249.91;1040774;28;20299;-81
2023/04/30 00:31:40;;;;;;;5.45;4.88;;;;;;;4.07;100.00;102256.16;1036594;28;20297;-81
2023/04/30 00:32:12;;;;;;;6.78;5.63;;;;;;;4.10;100.00;102248.78;1036797;28;20307;-81
2023/04/30 00:32:47;;;;;;;9.43;6.75;;;;;;;4.01;100.00;102250.47;1035397;28;20738;-81
2023/04/30 00:33:19;;;;;;;6.60;5.82;;;;;;;3.94;100.00;102249.38;1036555;28;20297;-81
2023/04/30 00:33:50;;;;;;;9.30;5.72;;;;;;;3.92;100.00;102256.59;1036388;28;20297;-80
2023/04/30 00:34:22;;;;;;;5.63;4.72;;;;;;;3.99;100.00;102262.97;1035993;28;20418;-80
2023/04/30 00:34:54;;;;;;;6.82;5.22;;;;;;;4.01;100.00;102254.91;1039430;28;20339;-81
2023/04/30 00:35:26;;;;;;;12.00;6.10;;;;;;;3.97;100.00;102254.34;1039398;28;20303;-81
2023/04/30 00:35:58;;;;;;;5.15;4.65;;;;;;;4.01;100.00;102250.47;1043287;28;20303;-81
2023/04/30 00:36:30;;;;;;;6.15;4.40;;;;;;;4.03;100.00;102259.06;1043739;28;20357;-81
2023/04/30 00:37:02;;;;;;;6.18;4.88;;;;;;;4.04;100.00;102250.19;1043127;28;20295;-80
2023/04/30 00:37:34;;;;;;;54.55;7.45;;;;;;;4.00;100.00;102254.09;1039276;28;20315;-81
2023/04/30 00:38:05;;;;;;;4.57;4.18;;;;;;;4.02;100.00;102252.13;1039380;28;20296;-80
2023/04/30 00:38:37;;;;;;;55.55;7.20;;;;;;;4.01;100.00;102261.00;1041738;28;20643;-81
2023/04/30 00:39:09;;;;;;;109.53;9.85;;;;;;;4.02;100.00;102251.31;1040172;28;20790;-81
2023/04/30 00:39:40;;;;;;;38.05;5.50;;;;;;;4.01;100.00;102255.75;1043803;28;20307;-81
2023/04/30 00:40:12;;;;;;;23.23;4.60;;;;;;;4.00;100.00;102256.72;1040234;28;20308;-81
2023/04/30 00:40:45;;;;;;;6.60;4.93;;;;;;;3.92;100.00;102256.59;1039879;28;20296;-80
2023/04/30 00:41:17;;;;;;;5.95;5.05;;;;;;;3.91;100.00;102252.28;1039270;28;20682;-81
2023/04/30 00:41:49;;;;;;;5.43;4.90;;;;;;;3.93;100.00;102258.25;1039964;28;20304;-81
2023/04/30 00:42:20;;;;;;;9.20;5.28;;;;;;;3.98;100.00;102255.19;1043726;28;20318;-81
2023/04/30 00:42:54;;;;;;;5.63;4.97;;;;;;;3.99;100.00;102252.41;1035503;28;20336;-80
2023/04/30 00:43:26;;;;;;;5.80;4.88;;;;;;;3.95;100.00;102256.31;1042807;28;20366;-80
2023/04/30 00:43:58;;;;;;;5.15;4.68;;;;;;;3.96;100.00;102257.13;1043571;28;20350;-81
2023/04/30 00:44:29;;;;;;;5.38;4.43;;;;;;;3.94;100.00;102253.81;1044503;28;20287;-81
2023/04/30 00:45:01;;;;;;;6.47;4.65;;;;;;;4.00;100.00;102251.44;1046920;28;20295;-81
2023/04/30 00:45:33;;;;;;;5.30;4.78;;;;;;;4.00;100.00;102258.53;1043451;28;20476;-80
2023/04/30 00:46:05;;;;;;;5.47;4.93;;;;;;;3.99;100.00;102254.22;1042952;28;20318;-81
2023/04/30 00:46:37;;;;;;;7.60;4.53;;;;;;;4.05;100.00;102251.03;1040675;28;20866;-81
2023/04/30 00:47:09;;;;;;;5.70;5.05;;;;;;;4.09;100.00;102249.75;1042990;28;20317;-80
2023/04/30 00:47:41;;;;;;;6.07;5.05;;;;;;;4.00;100.00;102253.25;1044040;28;20299;-80
2023/04/30 00:48:13;;;;;;;7.25;5.35;;;;;;;4.04;100.00;102242.28;1037478;28;20303;-80
2023/04/30 00:48:44;;;;;;;7.28;5.68;;;;;;;4.04;100.00;102242.28;1043377;28;20792;-80
2023/04/30 00:49:16;;;;;;;8.55;5.78;;;;;;;4.07;100.00;102256.16;1044360;28;20346;-81
2023/04/30 00:49:49;;;;;;;6.10;5.07;;;;;;;4.00;100.00;102254.09;1038614;28;20304;-80
2023/04/30 00:50:21;;;;;;;5.28;4.78;;;;;;;4.08;100.00;102244.63;1042367;28;20295;-80
2023/04/30 00:50:53;;;;;;;7.35;5.07;;;;;;;4.10;100.00;102254.06;1034840;28;20301;-80
2023/04/30 00:51:25;;;;;;;9.80;5.50;;;;;;;4.12;100.00;102252.16;1034105;28;20312;-80
2023/04/30 00:51:56;;;;;;;5.93;4.82;;;;;;;4.13;100.00;102248.53;1036175;28;20296;-81
2023/04/30 00:52:28;;;;;;;9.98;6.82;;;;;;;4.11;100.00;102244.34;1038820;28;20292;-80
2023/04/30 00:53:00;;;;;;;6.72;5.68;;;;;;;4.13;100.00;102247.72;1039870;28;20509;-81
2023/04/30 00:53:32;;;;;;;6.30;5.70;;;;;;;4.20;100.00;102248.81;1043549;28;20292;-80
2023/04/30 00:54:04;;;;;;;6.50;5.30;;;;;;;4.28;100.00;102254.22;1043289;28;20299;-80
2023/04/30 00:54:37;;;;;;;7.18;6.47;;;;;;;4.34;100.00;102251.00;1040667;28;20343;-80
2023/04/30 00:55:10;;;;;;;6.45;5.13;;;;;;;4.43;100.00;102254.63;1034749;28;20309;-80
2023/04/30 00:55:42;;;;;;;6.68;5.80;;;;;;;4.29;100.00;102243.53;1031498;28;20293;-81
2023/04/30 00:56:15;;;;;;;10.65;7.85;;;;;;;4.22;100.00;102257.41;1026836;28;20342;-81
2023/04/30 00:56:47;;;;;;;9.63;7.13;;;;;;;4.21;100.00;102248.66;1033022;28;20301;-81
2023/04/30 00:57:19;;;;;;;7.95;6.90;;;;;;;4.34;100.00;102246.56;1036888;28;20301;-80
2023/04/30 00:57:51;;;;;;;7.25;6.55;;;;;;;4.26;100.00;102254.34;1039408;28;20303;-81
2023/04/30 00:58:23;;;;;;;9.75;6.22;;;;;;;4.20;100.00;102244.38;1032380;28;20664;-80
2023/04/30 00:58:56;;;;;;;10.05;3.00;;;;;;;4.14;100.00;102250.22;1035668;28;20300;-81
2023/04/30 00:59:28;;;;;;;32.42;3.78;;;;;;;4.11;100.00;102242.56;1038624;28;20296;-81
2023/04/30 01:00:01;;;;;;;2.65;2.45;;;;;;;4.14;100.00;102244.09;1038533;28;20300;-80
2023/04/30 01:00:33;;;;;;;4.80;2.38;;;;;;;4.11;100.00;102244.34;1035128;28;20294;-80
2023/04/30 01:01:05;;;;;;;6.43;2.67;;;;;;;3.99;100.00;102249.78;1032599;28;20309;-80
2023/04/30 01:01:37;;;;;;;3.08;2.45;;;;;;;3.96;100.00;102249.22;1040446;28;20366;-80
2023/04/30 01:02:09;;;;;;;4.40;2.63;;;;;;;3.89;100.00;102243.69;1032856;28;20305;-80
2023/04/30 01:02:42;;;;;;;7.97;3.63;;;;;;;3.88;100.00;102244.66;1031821;28;20727;-81
2023/04/30 01:03:14;;;;;;;3.97;3.42;;;;;;;3.97;100.00;102248.25;1031139;28;20305;-81
2023/04/30 01:03:47;;;;;;;4.55;3.22;;;;;;;3.81;100.00;102248.78;1034303;28;20316;-80
2023/04/30 01:04:18;;;;;;;8.82;3.58;;;;;;;3.76;100.00;102245.72;1037017;28;20286;-81
2023/04/30 01:04:50;;;;;;;16.00;3.95;;;;;;;3.63;100.00;102240.75;1038760;28;20296;-80
2023/04/30 01:05:22;;;;;;;25.40;5.20;;;;;;;3.57;100.00;102251.00;1035645;28;20305;-81
2023/04/30 01:05:54;;;;;;;3.97;3.58;;;;;;;3.57;100.00;102243.09;1037920;28;20297;-81
2023/04/30 01:06:25;;;;;;;4.60;3.83;;;;;;;3.61;100.00;102241.84;1039459;28;20307;-81
2023/04/30 01:07:00;;;;;;;4.15;3.75;;;;;;;3.65;100.00;102253.78;1036752;28;20292;-80
2023/04/30 01:07:34;;;;;;;8.88;4.57;;;;;;;3.63;100.00;102242.53;1034689;28;20370;-81
2023/04/30 01:08:06;;;;;;;5.18;4.63;;;;;;;3.60;100.00;102248.91;1040648;28;20295;-81
2023/04/30 01:08:37;;;;;;;9.25;4.57;;;;;;;3.55;100.00;102248.47;1034059;28;20372;-81
2023/04/30 01:09:09;;;;;;;13.45;4.70;;;;;;;3.53;100.00;102249.56;1034817;28;20833;-80
2023/04/30 01:09:41;;;;;;;5.28;4.60;;;;;;;3.54;100.00;102248.59;1034878;28;20368;-80
2023/04/30 01:10:13;;;;;;;6.88;4.65;;;;;;;3.51;100.00;102240.97;1029678;28;20309;-81
2023/04/30 01:10:53;;;;;;;5.00;4.20;;;;;;;3.55;100.00;102248.47;1034297;28;20304;-80
2023/04/30 01:11:49;;;;;;;4.63;4.25;;;;;;;3.73;100.00;102246.00;1031139;28;20293;-80
2023/04/30 01:12:30;;;;;;;5.05;4.30;;;;;;;3.68;100.00;102249.06;1039386;28;20124;-80
2023/04/30 01:13:14;;;;;;;5.28;4.82;;;;;;;3.63;100.00;102245.19;1034336;28;20806;-80
2023/04/30 01:14:13;;;;;;;5.57;5.07;;;;;;;3.60;100.00;102245.44;1037786;28;20304;-80
2023/04/30 01:15:14;;;;;;;5.35;4.38;;;;;;;3.56;100.00;102252.81;1037347;28;20312;-81
2023/04/30 01:15:54;;;;;;;6.55;4.07;;;;;;;3.73;100.00;102244.22;1043113;28;20346;-80
2023/04/30 01:16:27;;;;;;;5.55;4.85;;;;;;;3.76;100.00;102250.19;1040629;28;20288;-80
2023/04/30 01:17:12;;;;;;;6.00;4.30;;;;;;;3.62;100.00;102248.78;1043286;28;20033;-80
2023/04/30 01:17:51;;;;;;;4.30;3.90;;;;;;;3.59;100.00;102255.16;1039445;28;20295;-81
2023/04/30 01:18:27;;;;;;;4.40;3.88;;;;;;;3.55;100.00;102253.72;1037543;28;20301;-81
2023/04/30 01:19:04;;;;;;;6.88;4.50;;;;;;;3.58;100.00;102255.28;1040823;28;20658;-81
2023/04/30 01:19:43;;;;;;;4.63;4.07;;;;;;;3.51;100.00;102256.78;1037897;28;20292;-80
2023/04/30 01:20:15;;;;;;;7.18;4.30;;;;;;;3.57;100.00;102251.81;1033595;28;20714;-81
2023/04/30 01:20:54;;;;;;;5.05;4.40;;;;;;;3.64;100.00;102257.38;1031104;28;20301;-80
2023/04/30 01:21:28;;;;;;;5.53;4.95;;;;;;;3.59;100.00;102259.59;1031435;28;20380;-81
2023/04/30 01:22:03;;;;;;;11.13;6.57;;;;;;;3.62;100.00;102264.59;1029124;28;20309;-80
2023/04/30 01:22:40;;;;;;;10.30;5.95;;;;;;;3.59;100.00;102259.59;1038629;28;20422;-80
2023/04/30 01:23:21;;;;;;;6.07;5.47;;;;;;;3.52;100.00;102254.00;1041225;28;20810;-81
2023/04/30 01:24:00;;;;;;;5.43;4.85;;;;;;;3.48;100.00;102262.31;1042226;28;20343;-80
2023/04/30 01:24:44;;;;;;;5.82;5.13;;;;;;;3.48;100.00;102262.31;1047979;28;20040;-81
2023/04/30 01:25:26;;;;;;;7.35;5.40;;;;;;;3.47;100.00;102260.66;1042070;28;20299;-81
2023/04/30 01:26:15;;;;;;;7.63;4.88;;;;;;;3.38;100.00;102257.88;1034560;28;20794;-81
2023/04/30 01:26:55;;;;;;;6.20;4.47;;;;;;;3.41;100.00;102262.88;1032498;28;20309;-81
2023/04/30 01:27:30;;;;;;;;;;;;;;;3.37;100.00;102260.66;1043078;28;20302;-81
2023/04/30 01:28:04;;;;;;;6.05;5.32;;;;;;;3.40;100.00;102261.19;1042512;28;20371;-80
2023/04/30 01:28:37;;;;;;;6.53;4.68;;;;;;;3.36;100.00;102258.97;1039223;28;20948;-81
2023/04/30 01:29:11;;;;;;;8.02;5.53;;;;;;;3.41;100.00;102257.59;1031367;28;20310;-81
2023/04/30 01:29:43;;;;;;;4.85;4.43;;;;;;;3.42;100.00;102261.91;1038158;28;20297;-81
2023/04/30 01:30:16;;;;;;;7.15;5.50;;;;;;;3.40;100.00;102260.38;1040064;28;20328;-81
2023/04/30 01:30:48;;;;;;;5.25;4.07;;;;;;;3.40;100.00;102255.09;1033816;28;20676;-80
2023/04/30 01:31:19;;;;;;;5.18;4.63;;;;;;;3.46;100.00;102259.00;1034548;28;20301;-80
2023/04/30 01:31:51;;;;;;;6.88;5.57;;;;;;;3.52;100.00;102255.81;1029203;28;20800;-80
2023/04/30 01:32:23;;;;;;;6.10;5.40;;;;;;;3.60;100.00;102254.19;1031944;28;20311;-80
2023/04/30 01:32:55;;;;;;;6.18;5.18;;;;;;;3.52;100.00;102259.28;1035897;28;20304;-81
2023/04/30 01:33:27;;;;;;;10.10;6.38;;;;;;;3.57;100.00;102258.91;1039367;28;20339;-80
2023/04/30 01:33:58;;;;;;;9.35;5.53;;;;;;;3.53;100.00;102258.31;1040049;28;20818;-80
2023/04/30 01:34:30;;;;;;;7.35;5.53;;;;;;;3.55;100.00;102258.16;1045542;28;20305;-81
2023/04/30 01:35:01;;;;;;;7.43;6.30;;;;;;;3.47;100.00;102260.66;1045586;28;20311;-80
2023/04/30 01:35:48;;;;;;;6.57;5.85;;;;;;;3.49;100.00;102266.63;1046128;28;20859;-80
2023/04/30 01:36:43;;;;;;;9.43;6.20;;;;;;;3.57;100.00;102258.91;1039071;28;20869;-80
2023/04/30 01:37:16;;;;;;;6.50;5.18;;;;;;;3.39;100.00;102264.81;1035113;28;20319;-81
2023/04/30 01:38:19;;;;;;;5.50;4.97;;;;;;;3.46;100.00;102264.25;1039196;28;20296;-80
2023/04/30 01:39:08;;;;;;;7.03;5.45;;;;;;;3.58;100.00;102273.75;1042591;28;20378;-81
2023/04/30 01:40:22;;;;;;;8.30;5.80;;;;;;;3.93;100.00;102266.16;1040563;28;20292;-80
2023/04/30 01:41:01;;;;;;;8.25;5.40;;;;;;;3.98;100.00;102266.56;1035363;28;20337;-80
2023/04/30 01:41:43;;;;;;;6.13;5.30;;;;;;;4.02;100.00;102267.94;1035370;28;20387;-80
2023/04/30 01:43:09;;;;;;;5.68;4.88;;;;;;;3.93;100.00;102271.44;1036490;28;20303;-80
2023/04/30 01:44:04;;;;;;;7.18;4.85;;;;;;;3.75;100.00;102262.53;1035433;28;20297;-81
2023/04/30 01:44:53;;;;;;;6.38;5.25;;;;;;;3.87;100.00;102268.50;1036996;28;20296;-81
2023/04/30 01:45:34;;;;;;;5.55;4.32;;;;;;;3.78;100.00;102272.78;1027487;28;20306;-81
2023/04/30 01:46:29;;;;;;;5.90;5.05;;;;;;;3.74;100.00;102268.75;1035809;28;20304;-81
2023/04/30 01:47:08;;;;;;;7.43;4.80;;;;;;;3.63;100.00;102266.25;1038652;28;20033;-81
2023/04/30 01:47:49;;;;;;;7.72;5.55;;;;;;;3.52;100.00;102268.97;1039291;28;20336;-81
2023/04/30 01:48:22;;;;;;;;;;;;;;;3.39;100.00;102264.81;1039341;28;20303;-81
2023/04/30 01:49:26;;;;;;;6.72;4.90;;;;;;;3.50;100.00;102270.91;1046364;28;20382;-81
2023/04/30 01:50:34;;;;;;;7.53;4.32;;;;;;;3.69;100.00;102268.34;1049182;28;20316;-81
2023/04/30 01:51:14;;;;;;;6.53;4.45;;;;;;;3.97;100.00;102270.19;1041471;28;20297;-81
2023/04/30 01:51:47;;;;;;;5.57;4.65;;;;;;;3.97;100.00;102270.19;1041604;28;20300;-81
2023/04/30 01:52:39;;;;;;;7.95;5.47;;;;;;;3.97;100.00;102266.72;1037360;28;20303;-81
2023/04/30 01:53:17;;;;;;;7.28;5.75;;;;;;;4.12;100.00;102269.78;1037031;28;20308;-81
2023/04/30 01:53:49;;;;;;;7.25;4.90;;;;;;;4.16;100.00;102269.34;1037045;28;20342;-81
2023/04/30 01:54:29;;;;;;;14.65;5.45;;;;;;;4.26;100.00;102269.34;1030829;28;20305;-80
2023/04/30 01:55:13;;;;;;;6.45;4.60;;;;;;;4.35;100.00;102268.50;1027453;28;20305;-82
2023/04/30 01:56:04;;;;;;;5.55;4.82;;;;;;;4.56;100.00;102269.16;1029898;28;20038;-82
2023/04/30 01:56:40;;;;;;;4.57;4.03;;;;;;;4.37;100.00;102265.72;1032059;28;20672;-82
2023/04/30 01:57:20;;;;;;;5.65;4.43;;;;;;;4.35;100.00;102268.50;1030716;28;20038;-82
2023/04/30 01:57:57;;;;;;;5.13;4.57;;;;;;;4.13;100.00;102263.53;1035345;28;20817;-82
2023/04/30 01:58:29;;;;;;;5.50;4.50;;;;;;;4.04;100.00;102262.53;1035264;28;20324;-82
2023/04/30 01:59:01;;;;;;;6.03;5.07;;;;;;;4.03;100.00;102266.97;1035003;28;20372;-81
2023/04/30 01:59:37;;;;;;;5.05;3.08;;;;;;;4.27;100.00;102265.72;1027472;28;20376;-82
2023/04/30 02:00:13;;;;;;;3.85;3.30;;;;;;;4.26;100.00;102270.19;1024119;28;20693;-81
2023/04/30 02:00:45;;;;;;;5.28;3.53;;;;;;;4.21;100.00;102266.31;1036408;28;20305;-82
2023/04/30 02:01:27;;;;;;;4.18;3.78;;;;;;;3.86;100.00;102270.31;1043163;28;20406;-82
2023/04/30 02:01:59;;;;;;;3.65;3.05;;;;;;;3.74;100.00;102268.75;1045156;28;20360;-82
2023/04/30 02:02:31;;;;;;;3.22;3.00;;;;;;;3.67;100.00;102267.66;1037842;28;20308;-82
2023/04/30 02:03:03;;;;;;;5.82;4.55;;;;;;;3.71;100.00;102269.03;1027192;28;20290;-81
2023/04/30 02:03:35;;;;;;;6.90;3.38;;;;;;;3.58;100.00;102276.38;1027695;28;20302;-82
2023/04/30 02:04:06;;;;;;;5.18;3.95;;;;;;;3.50;100.00;102277.03;1032019;28;20688;-82
2023/04/30 02:04:38;;;;;;;4.95;4.13;;;;;;;3.57;100.00;102272.06;1040586;28;20296;-82
2023/04/30 02:05:10;;;;;;;5.15;3.63;;;;;;;3.87;100.00;102274.63;1047516;28;20294;-82
2023/04/30 02:05:42;;;;;;;3.70;3.40;;;;;;;4.11;100.00;102273.34;1046945;28;20339;-82
2023/04/30 02:06:13;;;;;;;5.47;3.92;;;;;;;4.13;100.00;102277.56;1043551;28;20719;-82
2023/04/30 02:06:45;;;;;;;5.38;4.20;;;;;;;4.28;100.00;102270.03;1043472;28;20299;-82
2023/04/30 02:07:37;;;;;;;7.13;3.58;;;;;;;4.32;100.00;102279.34;1035416;28;20668;-82
2023/04/30 02:08:08;;;;;;;;;;;;;;;4.05;100.00;102277.38;1034698;28;20305;-82
2023/04/30 02:08:40;;;;;;;;;;;;;;;4.02;100.00;102275.03;1040348;28;20399;-80
2023/04/30 02:09:11;;;;;;;3.50;3.20;;;;;;;3.84;100.00;102272.25;1038862;28;19925;-80
2023/04/30 02:09:43;;;;;;;5.82;4.05;;;;;;;3.76;100.00;102269.44;1040577;28;20300;-80
2023/04/30 02:10:16;;;;;;;4.72;4.28;;;;;;;3.63;100.00;102271.53;1042315;28;20689;-80
2023/04/30 02:10:48;;;;;;;3.63;3.30;;;;;;;3.70;100.00;102270.84;1036771;28;20315;-80
2023/04/30 02:11:20;;;;;;;6.50;4.65;;;;;;;3.74;100.00;102268.75;1034452;28;20707;-80
2023/04/30 02:11:51;;;;;;;6.22;3.78;;;;;;;3.73;100.00;102272.38;1031508;28;20308;-80
2023/04/30 02:12:23;;;;;;;4.53;3.95;;;;;;;3.60;100.00;102277.91;1028902;28;20316;-80
2023/04/30 02:12:54;;;;;;;4.80;4.38;;;;;;;3.71;100.00;102271.66;1036190;28;20324;-81
2023/04/30 02:13:26;;;;;;;6.28;4.97;;;;;;;3.64;100.00;102276.66;1040265;28;20754;-81
2023/04/30 02:13:58;;;;;;;6.03;4.38;;;;;;;3.57;100.00;102277.34;1043217;28;20303;-80
2023/04/30 02:14:30;;;;;;;4.38;3.70;;;;;;;3.70;100.00;102272.63;1040417;28;20315;-81
2023/04/30 02:15:03;;;;;;;3.60;3.30;;;;;;;3.57;100.00;102282.63;1043899;28;20291;-80
2023/04/30 02:15:35;;;;;;;5.13;3.47;;;;;;;3.46;100.00;102274.78;1032383;28;20305;-81
2023/04/30 02:16:06;;;;;;;3.88;3.40;;;;;;;3.35;100.00;102275.75;1032747;28;20384;-80
2023/04/30 02:16:38;;;;;;;4.32;3.92;;;;;;;3.35;100.00;102275.75;1036343;28;20289;-80
2023/04/30 02:17:10;;;;;;;4.35;3.42;;;;;;;3.30;100.00;102284.06;1036410;28;20700;-80
2023/04/30 02:17:41;;;;;;;3.97;3.15;;;;;;;3.30;100.00;102278.78;1032112;28;20312;-80
2023/04/30 02:18:13;;;;;;;6.93;4.07;;;;;;;3.17;100.00;102280.78;1031940;28;20312;-80
2023/04/30 02:18:45;;;;;;;7.43;3.95;;;;;;;3.02;100.00;102276.88;1036002;28;20443;-80
2023/04/30 02:19:16;;;;;;;3.28;2.97;;;;;;;3.08;100.00;102282.44;1032417;28;20344;-80
2023/04/30 02:19:48;;;;;;;3.88;3.47;;;;;;;3.06;100.00;102278.25;1036007;28;20312;-80
2023/04/30 02:20:20;;;;;;;4.72;3.92;;;;;;;3.04;100.00;102281.03;1037029;28;20323;-80
2023/04/30 02:20:51;;;;;;;3.67;3.38;;;;;;;3.09;100.00;102284.09;1048172;28;20774;-81
2023/04/30 02:21:23;;;;;;;4.13;3.47;;;;;;;3.14;100.00;102280.22;1040444;28;20345;-80
2023/04/30 02:21:55;;;;;;;5.38;4.10;;;;;;;3.24;100.00;102279.28;1039757;28;20296;-80
2023/04/30 02:22:26;;;;;;;4.75;4.25;;;;;;;3.32;100.00;102274.22;1040231;28;20300;-80
2023/04/30 02:22:58;;;;;;;5.40;4.10;;;;;;;3.44;100.00;102282.84;1033498;28;20294;-80
2023/04/30 02:23:30;;;;;;;6.10;4.15;;;;;;;3.57;100.00;102286.06;1035156;28;20319;-80
2023/04/30 02:24:01;;;;;;;6.07;4.43;;;;;;;3.36;100.00;102280.88;1024517;28;20426;-80
2023/04/30 02:24:33;;;;;;;4.45;4.05;;;;;;;3.22;100.00;102283.03;1028899;28;20330;-80
2023/04/30 02:25:05;;;;;;;7.22;4.72;;;;;;;3.22;100.00;102283.88;1032149;28;20648;-80
2023/04/30 02:25:37;;;;;;;6.65;5.10;;;;;;;3.45;100.00;102286.31;1032485;28;20304;-80
2023/04/30 02:26:09;;;;;;;4.70;4.20;;;;;;;3.67;100.00;102280.81;1040325;28;20296;-80
2023/04/30 02:26:40;;;;;;;4.88;4.45;;;;;;;3.51;100.00;102289.22;1044648;28;20719;-79
2023/04/30 02:27:12;;;;;;;4.55;4.15;;;;;;;3.45;100.00;102287.13;1048156;28;20776;-80
2023/04/30 02:27:43;;;;;;;6.63;4.45;;;;;;;3.44;100.00;102288.09;1042001;28;20356;-80
2023/04/30 02:28:15;;;;;;;5.13;3.80;;;;;;;3.54;100.00;102290.75;1039916;28;20299;-80
2023/04/30 02:28:47;;;;;;;5.38;4.65;;;;;;;3.55;100.00;102289.78;1039794;28;20303;-80
2023/04/30 02:29:18;;;;;;;5.50;4.82;;;;;;;3.53;100.00;102289.09;1042844;28;20300;-80
2023/04/30 02:29:51;;;;;;;8.30;6.13;;;;;;;3.46;100.00;102280.91;1038372;28;20306;-80
2023/04/30 02:30:22;;;;;;;8.90;5.63;;;;;;;3.45;100.00;102286.31;1031518;28;20691;-80
2023/04/30 02:30:54;;;;;;;8.10;6.10;;;;;;;3.49;100.00;102279.78;1032120;28;20787;-80
2023/04/30 02:31:26;;;;;;;7.70;6.13;;;;;;;3.42;100.00;102285.59;1032928;28;20313;-80
2023/04/30 02:31:58;;;;;;;8.95;7.03;;;;;;;3.38;100.00;102286.00;1039882;28;20697;-79
2023/04/30 02:32:30;;;;;;;7.20;6.40;;;;;;;3.34;100.00;102287.25;1043684;28;20299;-80
2023/04/30 02:33:02;;;;;;;9.88;6.88;;;;;;;3.32;100.00;102284.75;1036754;28;20666;-80
2023/04/30 02:33:34;;;;;;;7.05;5.80;;;;;;;3.33;100.00;102286.41;1039581;28;20849;-80
2023/04/30 02:34:05;;;;;;;6.20;5.53;;;;;;;3.37;100.00;102287.81;1043062;28;20303;-80
2023/04/30 02:34:37;;;;;;;8.75;6.43;;;;;;;3.28;100.00;102280.69;1032169;28;20345;-80
2023/04/30 02:35:08;;;;;;;7.18;6.32;;;;;;;3.33;100.00;102280.31;1040272;28;20300;-80
2023/04/30 02:35:40;;;;;;;13.82;7.05;;;;;;;3.31;100.00;102283.09;1032431;28;20784;-82
2023/04/30 02:36:11;;;;;;;7.93;6.80;;;;;;;3.32;100.00;102284.75;1034348;28;20308;-82
2023/04/30 02:36:43;;;;;;;8.60;5.93;;;;;;;3.39;100.00;102283.25;1031906;28;20696;-82
2023/04/30 02:37:15;;;;;;;8.35;7.50;;;;;;;3.36;100.00;102280.88;1027971;28;20720;-82
2023/04/30 02:37:47;;;;;;;8.77;5.00;;;;;;;3.39;100.00;102285.88;1032844;28;20335;-82
2023/04/30 02:38:19;;;;;;;6.43;5.53;;;;;;;3.31;100.00;102280.44;1038060;28;20303;-82
2023/04/30 02:38:51;;;;;;;7.85;5.68;;;;;;;3.31;100.00;102288.34;1044817;28;20302;-82
2023/04/30 02:39:23;;;;;;;6.32;5.28;;;;;;;3.38;100.00;102284.22;1044416;28;20299;-81
2023/04/30 02:39:55;;;;;;;8.63;5.30;;;;;;;3.43;100.00;102281.16;1043939;28;20386;-82
2023/04/30 02:40:29;;;;;;;6.35;5.57;;;;;;;3.31;100.00;102283.09;1039985;28;20308;-82
2023/04/30 02:41:01;;;;;;;7.15;5.30;;;;;;;3.21;100.00;102284.00;1037329;28;20292;-82